sensor_id;sensor_type;location;lat;lon;timestamp;P1;durP1;ratioP1;P2;durP2;ratioP2
65045;SDS011;54657;52.022;5.534;2024-02-14T00:02:10;2.92;;;2.60;;
65045;SDS011;54657;52.022;5.534;2024-02-14T00:04:37;3.42;;;2.50;;
65045;SDS011;54657;52.022;5.534;2024-02-14T00:07:03;2.65;;;2.13;;
65045;SDS011;54657;52.022;5.534;2024-02-14T00:09:29;2.40;;;2.15;;
65045;SDS011;54657;52.022;5.534;2024-02-14T00:11:54;7.22;;;2.30;;
65045;SDS011;54657;52.022;5.534;2024-02-14T00:14:20;2.40;;;2.08;;
65045;SDS011;54657;52.022;5.534;2024-02-14T00:16:45;4.28;;;2.35;;
65045;SDS011;54657;52.022;5.534;2024-02-14T00:19:11;2.15;;;1.95;;
65045;SDS011;54657;52.022;5.534;2024-02-14T00:21:37;1.85;;;1.75;;
65045;SDS011;54657;52.022;5.534;2024-02-14T00:24:03;2.50;;;2.30;;
65045;SDS011;54657;52.022;5.534;2024-02-14T00:26:29;2.22;;;1.90;;
65045;SDS011;54657;52.022;5.534;2024-02-14T00:28:55;1.55;;;1.45;;
65045;SDS011;54657;52.022;5.534;2024-02-14T00:31:21;3.38;;;2.25;;
65045;SDS011;54657;52.022;5.534;2024-02-14T00:33:46;3.05;;;2.25;;
65045;SDS011;54657;52.022;5.534;2024-02-14T00:36:12;3.42;;;2.45;;
65045;SDS011;54657;52.022;5.534;2024-02-14T00:38:37;2.83;;;2.20;;
65045;SDS011;54657;52.022;5.534;2024-02-14T00:41:03;2.45;;;2.25;;
65045;SDS011;54657;52.022;5.534;2024-02-14T00:43:29;3.05;;;2.85;;
65045;SDS011;54657;52.022;5.534;2024-02-14T00:45:54;3.30;;;2.50;;
65045;SDS011;54657;52.022;5.534;2024-02-14T00:48:21;3.25;;;2.95;;
65045;SDS011;54657;52.022;5.534;2024-02-14T00:50:47;2.80;;;2.60;;
65045;SDS011;54657;52.022;5.534;2024-02-14T00:53:13;3.00;;;2.65;;
65045;SDS011;54657;52.022;5.534;2024-02-14T00:55:41;2.78;;;2.55;;
65045;SDS011;54657;52.022;5.534;2024-02-14T00:58:07;4.07;;;2.35;;
65045;SDS011;54657;52.022;5.534;2024-02-14T01:00:32;3.35;;;3.05;;
65045;SDS011;54657;52.022;5.534;2024-02-14T01:02:58;2.78;;;2.58;;
65045;SDS011;54657;52.022;5.534;2024-02-14T01:05:24;3.42;;;2.97;;
65045;SDS011;54657;52.022;5.534;2024-02-14T01:07:49;3.50;;;3.20;;
65045;SDS011;54657;52.022;5.534;2024-02-14T01:10:16;2.97;;;2.70;;
65045;SDS011;54657;52.022;5.534;2024-02-14T01:12:41;4.38;;;2.85;;
65045;SDS011;54657;52.022;5.534;2024-02-14T01:15:07;3.50;;;3.20;;
65045;SDS011;54657;52.022;5.534;2024-02-14T01:17:32;3.25;;;2.92;;
65045;SDS011;54657;52.022;5.534;2024-02-14T01:20:00;5.60;;;3.28;;
65045;SDS011;54657;52.022;5.534;2024-02-14T01:22:27;3.58;;;3.28;;
65045;SDS011;54657;52.022;5.534;2024-02-14T01:24:53;4.32;;;3.35;;
65045;SDS011;54657;52.022;5.534;2024-02-14T01:27:19;4.18;;;3.78;;
65045;SDS011;54657;52.022;5.534;2024-02-14T01:29:46;5.25;;;3.28;;
65045;SDS011;54657;52.022;5.534;2024-02-14T01:32:12;4.18;;;3.72;;
65045;SDS011;54657;52.022;5.534;2024-02-14T01:34:37;5.55;;;3.83;;
65045;SDS011;54657;52.022;5.534;2024-02-14T01:37:03;5.25;;;3.47;;
65045;SDS011;54657;52.022;5.534;2024-02-14T01:39:28;4.68;;;3.97;;
65045;SDS011;54657;52.022;5.534;2024-02-14T01:41:54;4.53;;;3.60;;
65045;SDS011;54657;52.022;5.534;2024-02-14T01:44:20;4.03;;;3.72;;
65045;SDS011;54657;52.022;5.534;2024-02-14T01:46:45;3.95;;;3.65;;
65045;SDS011;54657;52.022;5.534;2024-02-14T01:49:11;5.45;;;4.00;;
65045;SDS011;54657;52.022;5.534;2024-02-14T01:51:37;5.85;;;4.10;;
65045;SDS011;54657;52.022;5.534;2024-02-14T01:54:04;4.47;;;3.75;;
65045;SDS011;54657;52.022;5.534;2024-02-14T01:56:31;5.35;;;4.07;;
65045;SDS011;54657;52.022;5.534;2024-02-14T01:58:58;3.60;;;3.03;;
65045;SDS011;54657;52.022;5.534;2024-02-14T02:01:24;4.57;;;3.90;;
65045;SDS011;54657;52.022;5.534;2024-02-14T02:03:50;4.43;;;4.03;;
65045;SDS011;54657;52.022;5.534;2024-02-14T02:06:15;4.22;;;3.80;;
65045;SDS011;54657;52.022;5.534;2024-02-14T02:08:44;5.57;;;3.63;;
65045;SDS011;54657;52.022;5.534;2024-02-14T02:11:10;5.13;;;3.45;;
65045;SDS011;54657;52.022;5.534;2024-02-14T02:13:35;3.92;;;3.53;;
65045;SDS011;54657;52.022;5.534;2024-02-14T02:16:04;6.75;;;4.25;;
65045;SDS011;54657;52.022;5.534;2024-02-14T02:18:31;4.20;;;3.80;;
65045;SDS011;54657;52.022;5.534;2024-02-14T02:20:57;5.25;;;3.72;;
65045;SDS011;54657;52.022;5.534;2024-02-14T02:23:22;4.30;;;3.90;;
65045;SDS011;54657;52.022;5.534;2024-02-14T02:25:48;4.50;;;4.00;;
65045;SDS011;54657;52.022;5.534;2024-02-14T02:28:15;5.63;;;4.28;;
65045;SDS011;54657;52.022;5.534;2024-02-14T02:30:41;9.25;;;4.03;;
65045;SDS011;54657;52.022;5.534;2024-02-14T02:33:07;4.55;;;3.80;;
65045;SDS011;54657;52.022;5.534;2024-02-14T02:35:33;4.97;;;3.95;;
65045;SDS011;54657;52.022;5.534;2024-02-14T02:37:59;5.57;;;4.35;;
65045;SDS011;54657;52.022;5.534;2024-02-14T02:40:25;5.07;;;3.53;;
65045;SDS011;54657;52.022;5.534;2024-02-14T02:42:52;6.03;;;4.70;;
65045;SDS011;54657;52.022;5.534;2024-02-14T02:45:18;4.15;;;3.83;;
65045;SDS011;54657;52.022;5.534;2024-02-14T02:47:43;4.38;;;3.85;;
65045;SDS011;54657;52.022;5.534;2024-02-14T02:50:09;4.88;;;3.90;;
65045;SDS011;54657;52.022;5.534;2024-02-14T02:52:35;4.10;;;3.67;;
65045;SDS011;54657;52.022;5.534;2024-02-14T02:55:00;4.78;;;4.03;;
65045;SDS011;54657;52.022;5.534;2024-02-14T02:57:27;5.57;;;4.30;;
65045;SDS011;54657;52.022;5.534;2024-02-14T02:59:54;3.38;;;3.17;;
65045;SDS011;54657;52.022;5.534;2024-02-14T03:02:20;6.07;;;4.10;;
65045;SDS011;54657;52.022;5.534;2024-02-14T03:04:46;4.85;;;4.00;;
65045;SDS011;54657;52.022;5.534;2024-02-14T03:07:12;4.32;;;3.92;;
65045;SDS011;54657;52.022;5.534;2024-02-14T03:09:38;4.30;;;3.90;;
65045;SDS011;54657;52.022;5.534;2024-02-14T03:12:03;4.18;;;3.72;;
65045;SDS011;54657;52.022;5.534;2024-02-14T03:14:33;3.85;;;3.55;;
65045;SDS011;54657;52.022;5.534;2024-02-14T03:16:59;4.75;;;4.30;;
65045;SDS011;54657;52.022;5.534;2024-02-14T03:19:25;7.03;;;3.90;;
65045;SDS011;54657;52.022;5.534;2024-02-14T03:21:52;5.20;;;4.70;;
65045;SDS011;54657;52.022;5.534;2024-02-14T03:24:18;4.80;;;4.40;;
65045;SDS011;54657;52.022;5.534;2024-02-14T03:26:44;3.88;;;3.58;;
65045;SDS011;54657;52.022;5.534;2024-02-14T03:29:10;5.30;;;4.72;;
65045;SDS011;54657;52.022;5.534;2024-02-14T03:31:35;5.78;;;4.68;;
65045;SDS011;54657;52.022;5.534;2024-02-14T03:34:01;6.20;;;4.78;;
65045;SDS011;54657;52.022;5.534;2024-02-14T03:36:27;5.35;;;4.95;;
65045;SDS011;54657;52.022;5.534;2024-02-14T03:38:56;10.32;;;5.43;;
65045;SDS011;54657;52.022;5.534;2024-02-14T03:41:22;7.93;;;5.88;;
65045;SDS011;54657;52.022;5.534;2024-02-14T03:43:47;7.05;;;6.10;;
65045;SDS011;54657;52.022;5.534;2024-02-14T03:46:14;8.68;;;6.78;;
65045;SDS011;54657;52.022;5.534;2024-02-14T03:48:40;8.32;;;6.68;;
65045;SDS011;54657;52.022;5.534;2024-02-14T03:51:08;7.45;;;6.53;;
65045;SDS011;54657;52.022;5.534;2024-02-14T03:53:33;7.50;;;6.80;;
65045;SDS011;54657;52.022;5.534;2024-02-14T03:55:59;7.10;;;6.20;;
65045;SDS011;54657;52.022;5.534;2024-02-14T03:58:25;7.30;;;6.53;;
65045;SDS011;54657;52.022;5.534;2024-02-14T04:00:51;9.43;;;6.70;;
65045;SDS011;54657;52.022;5.534;2024-02-14T04:03:17;8.35;;;6.60;;
65045;SDS011;54657;52.022;5.534;2024-02-14T04:05:43;8.55;;;6.72;;
65045;SDS011;54657;52.022;5.534;2024-02-14T04:08:09;10.15;;;7.32;;
65045;SDS011;54657;52.022;5.534;2024-02-14T04:10:36;7.15;;;6.38;;
65045;SDS011;54657;52.022;5.534;2024-02-14T04:13:05;8.93;;;7.03;;
65045;SDS011;54657;52.022;5.534;2024-02-14T04:15:31;9.93;;;7.15;;
65045;SDS011;54657;52.022;5.534;2024-02-14T04:17:57;9.52;;;7.28;;
65045;SDS011;54657;52.022;5.534;2024-02-14T04:20:24;9.60;;;7.35;;
65045;SDS011;54657;52.022;5.534;2024-02-14T04:22:50;8.38;;;7.43;;
65045;SDS011;54657;52.022;5.534;2024-02-14T04:25:16;9.00;;;7.47;;
65045;SDS011;54657;52.022;5.534;2024-02-14T04:27:41;8.02;;;7.20;;
65045;SDS011;54657;52.022;5.534;2024-02-14T04:30:07;10.07;;;6.93;;
65045;SDS011;54657;52.022;5.534;2024-02-14T04:32:33;11.75;;;7.32;;
65045;SDS011;54657;52.022;5.534;2024-02-14T04:34:59;12.70;;;7.93;;
65045;SDS011;54657;52.022;5.534;2024-02-14T04:37:24;9.35;;;7.10;;
65045;SDS011;54657;52.022;5.534;2024-02-14T04:39:50;11.52;;;7.60;;
65045;SDS011;54657;52.022;5.534;2024-02-14T04:42:15;9.35;;;7.40;;
65045;SDS011;54657;52.022;5.534;2024-02-14T04:44:41;10.68;;;8.35;;
65045;SDS011;54657;52.022;5.534;2024-02-14T04:47:07;9.95;;;8.40;;
65045;SDS011;54657;52.022;5.534;2024-02-14T04:49:34;8.98;;;8.07;;
65045;SDS011;54657;52.022;5.534;2024-02-14T04:52:00;11.15;;;8.55;;
65045;SDS011;54657;52.022;5.534;2024-02-14T04:54:26;10.88;;;8.68;;
65045;SDS011;54657;52.022;5.534;2024-02-14T04:56:52;15.95;;;9.48;;
65045;SDS011;54657;52.022;5.534;2024-02-14T04:59:18;14.27;;;8.82;;
65045;SDS011;54657;52.022;5.534;2024-02-14T05:01:44;10.75;;;8.55;;
65045;SDS011;54657;52.022;5.534;2024-02-14T05:04:10;9.88;;;8.45;;
65045;SDS011;54657;52.022;5.534;2024-02-14T05:06:37;10.18;;;8.55;;
65045;SDS011;54657;52.022;5.534;2024-02-14T05:09:03;11.85;;;8.32;;
65045;SDS011;54657;52.022;5.534;2024-02-14T05:11:29;9.73;;;8.07;;
65045;SDS011;54657;52.022;5.534;2024-02-14T05:13:55;10.73;;;8.18;;
65045;SDS011;54657;52.022;5.534;2024-02-14T05:16:20;11.10;;;8.20;;
65045;SDS011;54657;52.022;5.534;2024-02-14T05:18:46;10.07;;;8.10;;
65045;SDS011;54657;52.022;5.534;2024-02-14T05:21:12;10.73;;;8.75;;
65045;SDS011;54657;52.022;5.534;2024-02-14T05:23:37;10.88;;;8.38;;
65045;SDS011;54657;52.022;5.534;2024-02-14T05:26:03;11.68;;;8.15;;
65045;SDS011;54657;52.022;5.534;2024-02-14T05:28:29;8.88;;;7.93;;
65045;SDS011;54657;52.022;5.534;2024-02-14T05:31:01;11.10;;;8.48;;
65045;SDS011;54657;52.022;5.534;2024-02-14T05:33:28;13.88;;;8.20;;
65045;SDS011;54657;52.022;5.534;2024-02-14T05:35:53;10.00;;;7.80;;
65045;SDS011;54657;52.022;5.534;2024-02-14T05:38:19;11.45;;;8.20;;
65045;SDS011;54657;52.022;5.534;2024-02-14T05:40:46;9.07;;;8.23;;
65045;SDS011;54657;52.022;5.534;2024-02-14T05:43:11;10.32;;;8.48;;
65045;SDS011;54657;52.022;5.534;2024-02-14T05:45:37;10.90;;;8.43;;
65045;SDS011;54657;52.022;5.534;2024-02-14T05:48:03;9.35;;;8.45;;
65045;SDS011;54657;52.022;5.534;2024-02-14T05:50:29;10.13;;;8.88;;
65045;SDS011;54657;52.022;5.534;2024-02-14T05:52:54;10.68;;;8.98;;
65045;SDS011;54657;52.022;5.534;2024-02-14T05:55:22;10.90;;;8.77;;
65045;SDS011;54657;52.022;5.534;2024-02-14T05:57:48;11.57;;;9.20;;
65045;SDS011;54657;52.022;5.534;2024-02-14T06:00:13;8.70;;;7.90;;
65045;SDS011;54657;52.022;5.534;2024-02-14T06:02:39;10.52;;;9.45;;
65045;SDS011;54657;52.022;5.534;2024-02-14T06:05:05;9.82;;;8.43;;
65045;SDS011;54657;52.022;5.534;2024-02-14T06:07:35;10.43;;;8.95;;
65045;SDS011;54657;52.022;5.534;2024-02-14T06:10:01;10.07;;;9.05;;
65045;SDS011;54657;52.022;5.534;2024-02-14T06:12:27;9.30;;;8.40;;
65045;SDS011;54657;52.022;5.534;2024-02-14T06:14:52;9.55;;;8.55;;
65045;SDS011;54657;52.022;5.534;2024-02-14T06:17:18;11.43;;;8.40;;
65045;SDS011;54657;52.022;5.534;2024-02-14T06:19:43;11.40;;;9.02;;
65045;SDS011;54657;52.022;5.534;2024-02-14T06:22:09;8.80;;;8.00;;
65045;SDS011;54657;52.022;5.534;2024-02-14T06:24:35;9.48;;;8.07;;
65045;SDS011;54657;52.022;5.534;2024-02-14T06:27:01;8.95;;;7.80;;
65045;SDS011;54657;52.022;5.534;2024-02-14T06:29:27;8.45;;;7.60;;
65045;SDS011;54657;52.022;5.534;2024-02-14T06:31:52;9.20;;;8.35;;
65045;SDS011;54657;52.022;5.534;2024-02-14T06:34:18;9.02;;;8.10;;
65045;SDS011;54657;52.022;5.534;2024-02-14T06:36:45;8.60;;;7.80;;
65045;SDS011;54657;52.022;5.534;2024-02-14T06:39:11;8.90;;;8.10;;
65045;SDS011;54657;52.022;5.534;2024-02-14T06:41:37;9.30;;;8.32;;
65045;SDS011;54657;52.022;5.534;2024-02-14T06:44:04;9.07;;;8.25;;
65045;SDS011;54657;52.022;5.534;2024-02-14T06:46:29;9.25;;;8.32;;
65045;SDS011;54657;52.022;5.534;2024-02-14T06:48:55;10.68;;;8.32;;
65045;SDS011;54657;52.022;5.534;2024-02-14T06:51:21;8.32;;;7.55;;
65045;SDS011;54657;52.022;5.534;2024-02-14T06:53:48;8.70;;;7.68;;
65045;SDS011;54657;52.022;5.534;2024-02-14T06:56:14;8.77;;;7.88;;
65045;SDS011;54657;52.022;5.534;2024-02-14T06:58:40;8.73;;;7.85;;
65045;SDS011;54657;52.022;5.534;2024-02-14T07:01:06;9.13;;;8.25;;
65045;SDS011;54657;52.022;5.534;2024-02-14T07:03:31;10.05;;;9.07;;
65045;SDS011;54657;52.022;5.534;2024-02-14T07:05:57;9.45;;;8.57;;
65045;SDS011;54657;52.022;5.534;2024-02-14T07:08:22;9.57;;;8.57;;
65045;SDS011;54657;52.022;5.534;2024-02-14T07:10:51;9.57;;;8.30;;
65045;SDS011;54657;52.022;5.534;2024-02-14T07:13:16;11.90;;;8.75;;
65045;SDS011;54657;52.022;5.534;2024-02-14T07:15:42;10.88;;;8.57;;
65045;SDS011;54657;52.022;5.534;2024-02-14T07:18:07;9.88;;;8.95;;
65045;SDS011;54657;52.022;5.534;2024-02-14T07:20:34;10.70;;;8.70;;
65045;SDS011;54657;52.022;5.534;2024-02-14T07:23:01;10.27;;;8.85;;
65045;SDS011;54657;52.022;5.534;2024-02-14T07:25:26;11.50;;;8.90;;
65045;SDS011;54657;52.022;5.534;2024-02-14T07:27:52;12.07;;;9.63;;
65045;SDS011;54657;52.022;5.534;2024-02-14T07:30:18;11.77;;;9.88;;
65045;SDS011;54657;52.022;5.534;2024-02-14T07:32:44;11.68;;;9.45;;
65045;SDS011;54657;52.022;5.534;2024-02-14T07:35:10;11.77;;;9.70;;
65045;SDS011;54657;52.022;5.534;2024-02-14T07:37:36;11.00;;;9.63;;
65045;SDS011;54657;52.022;5.534;2024-02-14T07:40:01;11.15;;;9.60;;
65045;SDS011;54657;52.022;5.534;2024-02-14T07:42:27;12.90;;;9.80;;
65045;SDS011;54657;52.022;5.534;2024-02-14T07:44:53;12.77;;;9.95;;
65045;SDS011;54657;52.022;5.534;2024-02-14T07:47:21;11.63;;;10.13;;
65045;SDS011;54657;52.022;5.534;2024-02-14T07:49:46;13.85;;;10.07;;
65045;SDS011;54657;52.022;5.534;2024-02-14T07:52:12;11.77;;;10.20;;
65045;SDS011;54657;52.022;5.534;2024-02-14T07:54:38;10.80;;;9.52;;
65045;SDS011;54657;52.022;5.534;2024-02-14T07:57:04;10.57;;;9.57;;
65045;SDS011;54657;52.022;5.534;2024-02-14T07:59:30;13.05;;;10.35;;
65045;SDS011;54657;52.022;5.534;2024-02-14T08:01:55;11.70;;;9.43;;
65045;SDS011;54657;52.022;5.534;2024-02-14T08:04:22;10.68;;;9.57;;
65045;SDS011;54657;52.022;5.534;2024-02-14T08:06:48;12.02;;;9.52;;
65045;SDS011;54657;52.022;5.534;2024-02-14T08:09:17;10.00;;;9.00;;
65045;SDS011;54657;52.022;5.534;2024-02-14T08:11:42;11.70;;;9.98;;
65045;SDS011;54657;52.022;5.534;2024-02-14T08:14:08;9.80;;;8.80;;
65045;SDS011;54657;52.022;5.534;2024-02-14T08:16:33;10.00;;;9.00;;
65045;SDS011;54657;52.022;5.534;2024-02-14T08:19:00;12.20;;;9.40;;
65045;SDS011;54657;52.022;5.534;2024-02-14T08:21:26;11.32;;;9.07;;
65045;SDS011;54657;52.022;5.534;2024-02-14T08:23:52;9.70;;;8.75;;
65045;SDS011;54657;52.022;5.534;2024-02-14T08:26:19;10.32;;;8.75;;
65045;SDS011;54657;52.022;5.534;2024-02-14T08:28:45;11.60;;;9.35;;
65045;SDS011;54657;52.022;5.534;2024-02-14T08:31:12;10.50;;;9.38;;
65045;SDS011;54657;52.022;5.534;2024-02-14T08:33:38;9.32;;;8.43;;
65045;SDS011;54657;52.022;5.534;2024-02-14T08:36:04;10.90;;;8.82;;
65045;SDS011;54657;52.022;5.534;2024-02-14T08:38:31;16.60;;;12.82;;
65045;SDS011;54657;52.022;5.534;2024-02-14T08:40:58;19.40;;;15.32;;
65045;SDS011;54657;52.022;5.534;2024-02-14T08:43:23;12.75;;;11.13;;
65045;SDS011;54657;52.022;5.534;2024-02-14T08:45:53;12.10;;;10.35;;
65045;SDS011;54657;52.022;5.534;2024-02-14T08:48:19;9.32;;;8.35;;
65045;SDS011;54657;52.022;5.534;2024-02-14T08:50:45;10.07;;;9.07;;
65045;SDS011;54657;52.022;5.534;2024-02-14T08:53:11;11.63;;;10.52;;
65045;SDS011;54657;52.022;5.534;2024-02-14T08:55:38;8.95;;;8.18;;
65045;SDS011;54657;52.022;5.534;2024-02-14T08:58:07;10.85;;;8.20;;
65045;SDS011;54657;52.022;5.534;2024-02-14T09:00:34;9.05;;;8.18;;
65045;SDS011;54657;52.022;5.534;2024-02-14T09:03:00;8.77;;;7.70;;
65045;SDS011;54657;52.022;5.534;2024-02-14T09:05:27;10.23;;;9.18;;
65045;SDS011;54657;52.022;5.534;2024-02-14T09:07:53;7.95;;;7.18;;
65045;SDS011;54657;52.022;5.534;2024-02-14T09:10:19;7.63;;;6.75;;
65045;SDS011;54657;52.022;5.534;2024-02-14T09:12:45;7.97;;;7.18;;
65045;SDS011;54657;52.022;5.534;2024-02-14T09:15:11;8.38;;;7.35;;
65045;SDS011;54657;52.022;5.534;2024-02-14T09:17:37;7.68;;;6.60;;
65045;SDS011;54657;52.022;5.534;2024-02-14T09:20:04;7.50;;;6.68;;
65045;SDS011;54657;52.022;5.534;2024-02-14T09:22:31;7.38;;;5.85;;
65045;SDS011;54657;52.022;5.534;2024-02-14T09:24:59;7.07;;;6.20;;
65045;SDS011;54657;52.022;5.534;2024-02-14T09:27:24;7.10;;;6.50;;
65045;SDS011;54657;52.022;5.534;2024-02-14T09:29:50;6.93;;;6.22;;
65045;SDS011;54657;52.022;5.534;2024-02-14T09:32:15;6.40;;;5.80;;
65045;SDS011;54657;52.022;5.534;2024-02-14T09:34:41;8.95;;;7.97;;
65045;SDS011;54657;52.022;5.534;2024-02-14T09:37:06;7.70;;;6.72;;
65045;SDS011;54657;52.022;5.534;2024-02-14T09:39:32;7.13;;;6.47;;
65045;SDS011;54657;52.022;5.534;2024-02-14T09:42:01;9.02;;;6.35;;
65045;SDS011;54657;52.022;5.534;2024-02-14T09:44:33;9.73;;;8.27;;
65045;SDS011;54657;52.022;5.534;2024-02-14T09:47:00;11.93;;;8.75;;
65045;SDS011;54657;52.022;5.534;2024-02-14T09:49:26;10.73;;;9.73;;
65045;SDS011;54657;52.022;5.534;2024-02-14T09:51:53;10.77;;;8.02;;
65045;SDS011;54657;52.022;5.534;2024-02-14T09:54:21;19.15;;;11.07;;
65045;SDS011;54657;52.022;5.534;2024-02-14T09:56:48;11.73;;;8.70;;
65045;SDS011;54657;52.022;5.534;2024-02-14T09:59:18;8.93;;;8.05;;
65045;SDS011;54657;52.022;5.534;2024-02-14T10:01:44;10.90;;;8.07;;
65045;SDS011;54657;52.022;5.534;2024-02-14T10:04:11;12.02;;;7.85;;
65045;SDS011;54657;52.022;5.534;2024-02-14T10:06:36;9.75;;;8.10;;
65045;SDS011;54657;52.022;5.534;2024-02-14T10:09:02;13.45;;;8.05;;
65045;SDS011;54657;52.022;5.534;2024-02-14T10:11:29;14.00;;;8.27;;
65045;SDS011;54657;52.022;5.534;2024-02-14T10:13:56;11.60;;;7.60;;
65045;SDS011;54657;52.022;5.534;2024-02-14T10:16:27;9.20;;;7.53;;
65045;SDS011;54657;52.022;5.534;2024-02-14T10:18:52;8.32;;;6.88;;
65045;SDS011;54657;52.022;5.534;2024-02-14T10:21:18;8.60;;;6.88;;
65045;SDS011;54657;52.022;5.534;2024-02-14T10:23:44;8.05;;;7.25;;
65045;SDS011;54657;52.022;5.534;2024-02-14T10:26:14;10.52;;;7.30;;
65045;SDS011;54657;52.022;5.534;2024-02-14T10:28:41;9.85;;;7.40;;
65045;SDS011;54657;52.022;5.534;2024-02-14T10:31:26;12.02;;;8.70;;
65045;SDS011;54657;52.022;5.534;2024-02-14T10:33:55;9.00;;;7.28;;
65045;SDS011;54657;52.022;5.534;2024-02-14T10:36:21;12.73;;;7.90;;
65045;SDS011;54657;52.022;5.534;2024-02-14T10:38:47;7.95;;;7.15;;
65045;SDS011;54657;52.022;5.534;2024-02-14T10:41:18;9.80;;;7.70;;
65045;SDS011;54657;52.022;5.534;2024-02-14T10:43:44;9.05;;;7.60;;
65045;SDS011;54657;52.022;5.534;2024-02-14T10:46:18;7.97;;;6.85;;
65045;SDS011;54657;52.022;5.534;2024-02-14T10:48:49;12.50;;;7.60;;
65045;SDS011;54657;52.022;5.534;2024-02-14T10:51:19;8.32;;;7.63;;
65045;SDS011;54657;52.022;5.534;2024-02-14T10:53:46;10.13;;;7.60;;
65045;SDS011;54657;52.022;5.534;2024-02-14T10:56:16;11.18;;;7.47;;
65045;SDS011;54657;52.022;5.534;2024-02-14T10:58:45;8.18;;;6.75;;
65045;SDS011;54657;52.022;5.534;2024-02-14T11:01:12;10.50;;;7.57;;
65045;SDS011;54657;52.022;5.534;2024-02-14T11:03:39;9.18;;;6.53;;
65045;SDS011;54657;52.022;5.534;2024-02-14T11:06:06;8.25;;;6.72;;
65045;SDS011;54657;52.022;5.534;2024-02-14T11:08:31;8.02;;;6.43;;
65045;SDS011;54657;52.022;5.534;2024-02-14T11:10:59;10.50;;;5.97;;
65045;SDS011;54657;52.022;5.534;2024-02-14T11:13:25;6.72;;;6.03;;
65045;SDS011;54657;52.022;5.534;2024-02-14T11:16:00;7.47;;;6.13;;
65045;SDS011;54657;52.022;5.534;2024-02-14T11:18:27;7.53;;;6.82;;
65045;SDS011;54657;52.022;5.534;2024-02-14T11:23:29;6.32;;;5.70;;
65045;SDS011;54657;52.022;5.534;2024-02-14T11:25:59;8.88;;;5.68;;
65045;SDS011;54657;52.022;5.534;2024-02-14T11:28:28;11.52;;;8.68;;
65045;SDS011;54657;52.022;5.534;2024-02-14T11:30:58;9.10;;;6.97;;
65045;SDS011;54657;52.022;5.534;2024-02-14T11:33:26;5.88;;;5.28;;
65045;SDS011;54657;52.022;5.534;2024-02-14T11:35:52;7.97;;;5.70;;
65045;SDS011;54657;52.022;5.534;2024-02-14T11:38:22;7.88;;;5.75;;
65045;SDS011;54657;52.022;5.534;2024-02-14T11:40:51;7.82;;;6.43;;
65045;SDS011;54657;52.022;5.534;2024-02-14T11:43:21;7.57;;;4.55;;
65045;SDS011;54657;52.022;5.534;2024-02-14T11:45:48;6.68;;;4.57;;
65045;SDS011;54657;52.022;5.534;2024-02-14T11:48:17;5.13;;;4.63;;
65045;SDS011;54657;52.022;5.534;2024-02-14T11:50:43;8.13;;;4.10;;
65045;SDS011;54657;52.022;5.534;2024-02-14T11:53:10;6.60;;;4.40;;
65045;SDS011;54657;52.022;5.534;2024-02-14T11:55:38;7.10;;;4.30;;
65045;SDS011;54657;52.022;5.534;2024-02-14T11:58:11;3.97;;;3.05;;
65045;SDS011;54657;52.022;5.534;2024-02-14T12:00:38;6.15;;;4.68;;
65045;SDS011;54657;52.022;5.534;2024-02-14T12:03:09;4.78;;;4.05;;
65045;SDS011;54657;52.022;5.534;2024-02-14T12:05:41;5.90;;;5.30;;
65045;SDS011;54657;52.022;5.534;2024-02-14T12:08:09;5.63;;;5.03;;
65045;SDS011;54657;52.022;5.534;2024-02-14T12:10:35;3.83;;;3.45;;
65045;SDS011;54657;52.022;5.534;2024-02-14T12:13:09;5.30;;;3.63;;
65045;SDS011;54657;52.022;5.534;2024-02-14T12:18:08;5.63;;;3.67;;
65045;SDS011;54657;52.022;5.534;2024-02-14T12:20:35;5.82;;;3.72;;
65045;SDS011;54657;52.022;5.534;2024-02-14T12:23:02;4.07;;;3.67;;
65045;SDS011;54657;52.022;5.534;2024-02-14T12:25:27;5.65;;;5.15;;
65045;SDS011;54657;52.022;5.534;2024-02-14T12:27:54;4.55;;;4.22;;
65045;SDS011;54657;52.022;5.534;2024-02-14T12:30:22;4.03;;;3.65;;
65045;SDS011;54657;52.022;5.534;2024-02-14T12:33:00;4.53;;;3.90;;
65045;SDS011;54657;52.022;5.534;2024-02-14T12:35:33;4.88;;;4.25;;
65045;SDS011;54657;52.022;5.534;2024-02-14T12:38:00;5.78;;;4.63;;
65045;SDS011;54657;52.022;5.534;2024-02-14T12:40:26;4.88;;;4.00;;
65045;SDS011;54657;52.022;5.534;2024-02-14T12:42:51;4.40;;;4.00;;
65045;SDS011;54657;52.022;5.534;2024-02-14T12:45:17;4.63;;;4.22;;
65045;SDS011;54657;52.022;5.534;2024-02-14T12:47:43;5.15;;;4.32;;
65045;SDS011;54657;52.022;5.534;2024-02-14T12:50:09;5.03;;;4.53;;
65045;SDS011;54657;52.022;5.534;2024-02-14T12:52:34;4.90;;;3.88;;
65045;SDS011;54657;52.022;5.534;2024-02-14T12:55:00;4.20;;;3.80;;
65045;SDS011;54657;52.022;5.534;2024-02-14T12:57:26;4.00;;;3.35;;
65045;SDS011;54657;52.022;5.534;2024-02-14T12:59:51;3.97;;;3.40;;
65045;SDS011;54657;52.022;5.534;2024-02-14T13:02:17;3.67;;;3.38;;
65045;SDS011;54657;52.022;5.534;2024-02-14T13:04:43;4.10;;;3.70;;
65045;SDS011;54657;52.022;5.534;2024-02-14T13:07:08;3.60;;;3.28;;
65045;SDS011;54657;52.022;5.534;2024-02-14T13:09:34;3.90;;;3.47;;
65045;SDS011;54657;52.022;5.534;2024-02-14T13:12:00;5.35;;;3.75;;
65045;SDS011;54657;52.022;5.534;2024-02-14T13:14:26;4.03;;;2.92;;
65045;SDS011;54657;52.022;5.534;2024-02-14T13:16:51;2.88;;;2.67;;
65045;SDS011;54657;52.022;5.534;2024-02-14T13:19:17;4.03;;;3.13;;
65045;SDS011;54657;52.022;5.534;2024-02-14T13:21:42;3.50;;;2.90;;
65045;SDS011;54657;52.022;5.534;2024-02-14T13:24:10;3.60;;;2.58;;
65045;SDS011;54657;52.022;5.534;2024-02-14T13:26:38;2.78;;;2.33;;
65045;SDS011;54657;52.022;5.534;2024-02-14T13:29:03;3.47;;;2.50;;
65045;SDS011;54657;52.022;5.534;2024-02-14T13:31:29;2.78;;;2.58;;
65045;SDS011;54657;52.022;5.534;2024-02-14T13:33:54;2.90;;;2.70;;
65045;SDS011;54657;52.022;5.534;2024-02-14T13:36:20;2.65;;;2.45;;
65045;SDS011;54657;52.022;5.534;2024-02-14T13:38:48;2.70;;;2.40;;
65045;SDS011;54657;52.022;5.534;2024-02-14T13:41:14;3.65;;;3.35;;
65045;SDS011;54657;52.022;5.534;2024-02-14T13:43:40;3.40;;;3.13;;
65045;SDS011;54657;52.022;5.534;2024-02-14T13:46:06;3.22;;;2.83;;
65045;SDS011;54657;52.022;5.534;2024-02-14T13:48:34;3.15;;;2.80;;
65045;SDS011;54657;52.022;5.534;2024-02-14T13:51:00;3.55;;;3.25;;
65045;SDS011;54657;52.022;5.534;2024-02-14T13:53:27;3.20;;;3.00;;
65045;SDS011;54657;52.022;5.534;2024-02-14T13:55:52;4.13;;;3.60;;
65045;SDS011;54657;52.022;5.534;2024-02-14T13:58:18;3.70;;;3.38;;
65045;SDS011;54657;52.022;5.534;2024-02-14T14:00:44;4.10;;;3.70;;
65045;SDS011;54657;52.022;5.534;2024-02-14T14:03:10;4.53;;;3.83;;
65045;SDS011;54657;52.022;5.534;2024-02-14T14:05:36;4.63;;;4.22;;
65045;SDS011;54657;52.022;5.534;2024-02-14T14:08:02;5.88;;;4.70;;
65045;SDS011;54657;52.022;5.534;2024-02-14T14:10:28;4.38;;;3.95;;
65045;SDS011;54657;52.022;5.534;2024-02-14T14:12:54;5.88;;;5.18;;
65045;SDS011;54657;52.022;5.534;2024-02-14T14:15:20;6.25;;;5.65;;
65045;SDS011;54657;52.022;5.534;2024-02-14T14:17:47;6.45;;;5.78;;
65045;SDS011;54657;52.022;5.534;2024-02-14T14:20:13;5.60;;;5.05;;
65045;SDS011;54657;52.022;5.534;2024-02-14T14:22:39;5.07;;;4.68;;
65045;SDS011;54657;52.022;5.534;2024-02-14T14:25:04;6.85;;;6.15;;
65045;SDS011;54657;52.022;5.534;2024-02-14T14:27:33;7.40;;;6.70;;
65045;SDS011;54657;52.022;5.534;2024-02-14T14:29:58;6.75;;;6.15;;
65045;SDS011;54657;52.022;5.534;2024-02-14T14:32:24;6.18;;;5.57;;
65045;SDS011;54657;52.022;5.534;2024-02-14T14:34:49;6.38;;;5.40;;
65045;SDS011;54657;52.022;5.534;2024-02-14T14:37:15;5.93;;;5.43;;
65045;SDS011;54657;52.022;5.534;2024-02-14T14:39:40;7.70;;;5.30;;
65045;SDS011;54657;52.022;5.534;2024-02-14T14:42:06;5.97;;;5.47;;
65045;SDS011;54657;52.022;5.534;2024-02-14T14:44:33;5.10;;;4.60;;